Brady, Nebraska
Current Conditions -  °F | °C
As of 2:53 AM on Thursday 23 Oct 2014 (Local Time) from KLBF Reporting Station
Moderate Fog Moderate Fog  
Wind Chill: 44°   Ceiling: 100
Heat Index: 44°   Visibility: 0.25mi
Dew Point: 43°   Wind: 0mph
Humidity: 96%   Direction: NA
Pressure: 30.08"   Gusts: NA
Location:  41.02°N, 100.37°W
Report Text: KLBF 230753Z AUTO 00000KT 1/4SM FG VV001 07/06 A3008 RMK AO2 SLP179 T00670061
Loading
Personal Weather Stations






























Interactive Weather Map
Tropical Storm Tracking
New forecast layout! Learn more

10-Day Weather Forecast

Advertisements
Track Severe Weather on mobile